sensor_id;sensor_type;location;lat;lon;timestamp;pressure;altitude;pressure_sealevel;temperature;humidity
38630;BME280;24384;51.988;4.644;2023-04-25T00:02:08;101208.28;;;6.50;83.51
38630;BME280;24384;51.988;4.644;2023-04-25T00:04:33;101212.50;;;6.63;82.93
38630;BME280;24384;51.988;4.644;2023-04-25T00:06:58;101207.38;;;6.52;82.50
38630;BME280;24384;51.988;4.644;2023-04-25T00:09:26;101206.56;;;6.45;82.55
38630;BME280;24384;51.988;4.644;2023-04-25T00:11:51;101219.53;;;6.58;81.95
38630;BME280;24384;51.988;4.644;2023-04-25T00:14:17;101216.22;;;6.40;82.42
38630;BME280;24384;51.988;4.644;2023-04-25T00:16:42;101224.97;;;6.36;82.55
38630;BME280;24384;51.988;4.644;2023-04-25T00:19:09;101220.66;;;6.35;82.24
38630;BME280;24384;51.988;4.644;2023-04-25T00:21:34;101224.19;;;6.28;82.71
38630;BME280;24384;51.988;4.644;2023-04-25T00:24:00;101232.13;;;6.22;82.85
38630;BME280;24384;51.988;4.644;2023-04-25T00:26:25;101227.88;;;6.05;84.43
38630;BME280;24384;51.988;4.644;2023-04-25T00:28:50;101225.28;;;6.02;84.50
38630;BME280;24384;51.988;4.644;2023-04-25T00:31:16;101223.53;;;6.06;84.33
38630;BME280;24384;51.988;4.644;2023-04-25T00:33:41;101226.13;;;6.09;83.51
38630;BME280;24384;51.988;4.644;2023-04-25T00:36:06;101231.44;;;6.00;84.22
38630;BME280;24384;51.988;4.644;2023-04-25T00:38:32;101224.47;;;5.97;83.58
38630;BME280;24384;51.988;4.644;2023-04-25T00:40:57;101230.63;;;5.84;84.91
38630;BME280;24384;51.988;4.644;2023-04-25T00:43:25;101234.97;;;5.86;84.45
38630;BME280;24384;51.988;4.644;2023-04-25T00:45:50;101229.66;;;6.03;83.47
38630;BME280;24384;51.988;4.644;2023-04-25T00:48:17;101227.09;;;5.92;84.42
38630;BME280;24384;51.988;4.644;2023-04-25T00:50:43;101239.22;;;6.07;84.16
38630;BME280;24384;51.988;4.644;2023-04-25T00:53:14;101237.47;;;6.08;84.69
38630;BME280;24384;51.988;4.644;2023-04-25T00:55:39;101236.53;;;6.18;84.44
38630;BME280;24384;51.988;4.644;2023-04-25T00:58:04;101240.03;;;6.13;83.76
38630;BME280;24384;51.988;4.644;2023-04-25T01:00:29;101245.22;;;6.19;84.21
38630;BME280;24384;51.988;4.644;2023-04-25T01:02:55;101237.44;;;6.13;84.40
38630;BME280;24384;51.988;4.644;2023-04-25T01:05:20;101238.34;;;6.05;85.27
38630;BME280;24384;51.988;4.644;2023-04-25T01:07:45;101240.09;;;6.05;85.45
38630;BME280;24384;51.988;4.644;2023-04-25T01:10:12;101253.19;;;6.05;85.08
38630;BME280;24384;51.988;4.644;2023-04-25T01:12:37;101247.13;;;6.00;84.17
38630;BME280;24384;51.988;4.644;2023-04-25T01:15:02;101249.75;;;6.01;84.85
38630;BME280;24384;51.988;4.644;2023-04-25T01:17:28;101250.66;;;5.91;85.46
38630;BME280;24384;51.988;4.644;2023-04-25T01:19:54;101252.34;;;6.04;84.13
38630;BME280;24384;51.988;4.644;2023-04-25T01:22:19;101252.47;;;5.83;84.70
38630;BME280;24384;51.988;4.644;2023-04-25T01:24:44;101252.50;;;5.80;83.79
38630;BME280;24384;51.988;4.644;2023-04-25T01:27:10;101254.28;;;5.68;84.98
38630;BME280;24384;51.988;4.644;2023-04-25T01:29:35;101256.03;;;5.69;84.64
38630;BME280;24384;51.988;4.644;2023-04-25T01:32:01;101264.78;;;5.65;85.04
38630;BME280;24384;51.988;4.644;2023-04-25T01:34:26;101260.50;;;5.50;85.74
38630;BME280;24384;51.988;4.644;2023-04-25T01:36:51;101268.34;;;5.52;85.88
38630;BME280;24384;51.988;4.644;2023-04-25T01:39:17;101266.56;;;5.59;85.10
38630;BME280;24384;51.988;4.644;2023-04-25T01:41:43;101265.66;;;5.67;84.84
38630;BME280;24384;51.988;4.644;2023-04-25T01:44:08;101263.91;;;5.63;85.53
38630;BME280;24384;51.988;4.644;2023-04-25T01:46:34;101263.06;;;5.60;85.97
38630;BME280;24384;51.988;4.644;2023-04-25T01:48:59;101264.78;;;5.62;85.63
38630;BME280;24384;51.988;4.644;2023-04-25T01:51:25;101271.72;;;5.71;84.35
38630;BME280;24384;51.988;4.644;2023-04-25T01:53:51;101271.84;;;5.51;85.94
38630;BME280;24384;51.988;4.644;2023-04-25T01:56:17;101269.22;;;5.52;85.65
38630;BME280;24384;51.988;4.644;2023-04-25T01:58:43;101268.41;;;5.43;86.34
38630;BME280;24384;51.988;4.644;2023-04-25T02:01:09;101277.09;;;5.48;86.49
38630;BME280;24384;51.988;4.644;2023-04-25T02:03:34;101273.66;;;5.36;86.88
38630;BME280;24384;51.988;4.644;2023-04-25T02:06:00;101279.69;;;5.52;86.63
38630;BME280;24384;51.988;4.644;2023-04-25T02:08:25;101281.47;;;5.44;86.91
38630;BME280;24384;51.988;4.644;2023-04-25T02:10:51;101277.97;;;5.44;87.01
38630;BME280;24384;51.988;4.644;2023-04-25T02:13:16;101284.94;;;5.48;86.60
38630;BME280;24384;51.988;4.644;2023-04-25T02:15:41;101279.72;;;5.43;86.91
38630;BME280;24384;51.988;4.644;2023-04-25T02:18:07;101270.94;;;5.60;85.99
38630;BME280;24384;51.988;4.644;2023-04-25T02:20:32;101283.06;;;5.70;86.27
38630;BME280;24384;51.988;4.644;2023-04-25T02:22:57;101273.50;;;5.67;85.73
38630;BME280;24384;51.988;4.644;2023-04-25T02:25:22;101283.06;;;5.71;84.68
38630;BME280;24384;51.988;4.644;2023-04-25T02:27:48;101284.75;;;5.83;84.72
38630;BME280;24384;51.988;4.644;2023-04-25T02:30:13;101285.53;;;5.91;84.63
38630;BME280;24384;51.988;4.644;2023-04-25T02:32:39;101287.38;;;5.79;85.03
38630;BME280;24384;51.988;4.644;2023-04-25T02:35:04;101276.84;;;5.91;83.25
38630;BME280;24384;51.988;4.644;2023-04-25T02:37:30;101278.66;;;5.80;83.90
38630;BME280;24384;51.988;4.644;2023-04-25T02:39:55;101283.94;;;5.73;84.22
38630;BME280;24384;51.988;4.644;2023-04-25T02:42:21;101284.81;;;5.68;84.00
38630;BME280;24384;51.988;4.644;2023-04-25T02:44:46;101288.34;;;5.59;83.44
38630;BME280;24384;51.988;4.644;2023-04-25T02:47:11;101285.75;;;5.59;84.16
38630;BME280;24384;51.988;4.644;2023-04-25T02:49:36;101287.44;;;5.68;84.86
38630;BME280;24384;51.988;4.644;2023-04-25T02:52:01;101290.00;;;5.77;84.40
38630;BME280;24384;51.988;4.644;2023-04-25T02:54:26;101278.63;;;5.84;84.02
38630;BME280;24384;51.988;4.644;2023-04-25T02:56:52;101279.47;;;5.89;84.40
38630;BME280;24384;51.988;4.644;2023-04-25T02:59:17;101282.06;;;5.97;84.24
38630;BME280;24384;51.988;4.644;2023-04-25T03:01:42;101279.41;;;6.03;83.22
38630;BME280;24384;51.988;4.644;2023-04-25T03:04:07;101280.25;;;6.07;82.93
38630;BME280;24384;51.988;4.644;2023-04-25T03:06:33;101282.03;;;6.03;83.19
38630;BME280;24384;51.988;4.644;2023-04-25T03:08:59;101288.03;;;6.13;82.99
38630;BME280;24384;51.988;4.644;2023-04-25T03:11:24;101284.50;;;6.20;82.81
38630;BME280;24384;51.988;4.644;2023-04-25T03:13:50;101275.81;;;6.17;82.41
38630;BME280;24384;51.988;4.644;2023-04-25T03:16:15;101277.50;;;6.24;82.00
38630;BME280;24384;51.988;4.644;2023-04-25T03:18:40;101283.66;;;6.20;82.66
38630;BME280;24384;51.988;4.644;2023-04-25T03:21:06;101274.00;;;6.25;82.61
38630;BME280;24384;51.988;4.644;2023-04-25T03:23:31;101277.53;;;6.19;82.02
38630;BME280;24384;51.988;4.644;2023-04-25T03:25:56;101291.56;;;6.12;81.96
38630;BME280;24384;51.988;4.644;2023-04-25T03:28:21;101297.63;;;6.16;82.27
38630;BME280;24384;51.988;4.644;2023-04-25T03:30:46;101293.31;;;6.10;81.57
38630;BME280;24384;51.988;4.644;2023-04-25T03:33:12;101292.41;;;6.14;81.92
38630;BME280;24384;51.988;4.644;2023-04-25T03:35:37;101287.88;;;6.35;80.60
38630;BME280;24384;51.988;4.644;2023-04-25T03:38:02;101291.44;;;6.27;80.87
38630;BME280;24384;51.988;4.644;2023-04-25T03:40:27;101303.75;;;6.15;82.46
38630;BME280;24384;51.988;4.644;2023-04-25T03:42:52;101311.56;;;6.21;81.97
38630;BME280;24384;51.988;4.644;2023-04-25T03:45:18;101308.88;;;6.28;82.45
38630;BME280;24384;51.988;4.644;2023-04-25T03:47:43;101301.94;;;6.26;82.62
38630;BME280;24384;51.988;4.644;2023-04-25T03:50:08;101309.78;;;6.29;83.13
38630;BME280;24384;51.988;4.644;2023-04-25T03:52:34;101311.44;;;6.36;82.78
38630;BME280;24384;51.988;4.644;2023-04-25T03:54:59;101297.50;;;6.34;83.67
38630;BME280;24384;51.988;4.644;2023-04-25T03:57:24;101310.56;;;6.37;83.39
38630;BME280;24384;51.988;4.644;2023-04-25T03:59:49;101312.34;;;6.37;83.72
38630;BME280;24384;51.988;4.644;2023-04-25T04:02:14;101318.44;;;6.37;83.86
38630;BME280;24384;51.988;4.644;2023-04-25T04:04:40;101324.56;;;6.33;84.12
38630;BME280;24384;51.988;4.644;2023-04-25T04:07:05;101326.28;;;6.37;83.84
38630;BME280;24384;51.988;4.644;2023-04-25T04:09:30;101330.66;;;6.37;84.17
38630;BME280;24384;51.988;4.644;2023-04-25T04:11:55;101325.41;;;6.38;84.35
38630;BME280;24384;51.988;4.644;2023-04-25T04:14:20;101324.53;;;6.36;84.36
38630;BME280;24384;51.988;4.644;2023-04-25T04:16:46;101321.91;;;6.38;84.31
38630;BME280;24384;51.988;4.644;2023-04-25T04:19:11;101329.78;;;6.38;84.47
38630;BME280;24384;51.988;4.644;2023-04-25T04:21:36;101321.88;;;6.42;84.46
38630;BME280;24384;51.988;4.644;2023-04-25T04:24:01;101328.91;;;6.37;84.51
38630;BME280;24384;51.988;4.644;2023-04-25T04:26:27;101332.34;;;6.42;84.78
38630;BME280;24384;51.988;4.644;2023-04-25T04:28:52;101332.31;;;6.45;84.69
38630;BME280;24384;51.988;4.644;2023-04-25T04:31:19;101330.66;;;6.38;84.53
38630;BME280;24384;51.988;4.644;2023-04-25T04:33:44;101337.50;;;6.53;84.46
38630;BME280;24384;51.988;4.644;2023-04-25T04:36:09;101335.81;;;6.49;84.21
38630;BME280;24384;51.988;4.644;2023-04-25T04:38:35;101334.94;;;6.45;84.80
38630;BME280;24384;51.988;4.644;2023-04-25T04:41:01;101335.81;;;6.51;84.36
38630;BME280;24384;51.988;4.644;2023-04-25T04:43:27;101334.88;;;6.53;84.15
38630;BME280;24384;51.988;4.644;2023-04-25T04:45:53;101340.13;;;6.53;84.23
38630;BME280;24384;51.988;4.644;2023-04-25T04:48:21;101346.25;;;6.54;84.47
38630;BME280;24384;51.988;4.644;2023-04-25T04:50:46;101349.72;;;6.56;84.27
38630;BME280;24384;51.988;4.644;2023-04-25T04:53:11;101354.09;;;6.58;82.51
38630;BME280;24384;51.988;4.644;2023-04-25T04:55:37;101360.25;;;6.51;81.11
38630;BME280;24384;51.988;4.644;2023-04-25T04:58:02;101363.84;;;6.36;81.34
38630;BME280;24384;51.988;4.644;2023-04-25T05:00:27;101372.50;;;6.51;81.03
38630;BME280;24384;51.988;4.644;2023-04-25T05:02:54;101378.56;;;6.53;79.88
38630;BME280;24384;51.988;4.644;2023-04-25T05:05:19;101374.25;;;6.47;80.55
38630;BME280;24384;51.988;4.644;2023-04-25T05:07:44;101377.72;;;6.52;81.07
38630;BME280;24384;51.988;4.644;2023-04-25T05:10:10;101379.38;;;6.61;81.71
38630;BME280;24384;51.988;4.644;2023-04-25T05:12:35;101375.94;;;6.56;81.39
38630;BME280;24384;51.988;4.644;2023-04-25T05:15:00;101388.19;;;6.54;82.59
38630;BME280;24384;51.988;4.644;2023-04-25T05:17:25;101385.53;;;6.58;83.35
38630;BME280;24384;51.988;4.644;2023-04-25T05:19:51;101396.91;;;6.56;84.01
38630;BME280;24384;51.988;4.644;2023-04-25T05:22:17;101394.22;;;6.62;83.09
38630;BME280;24384;51.988;4.644;2023-04-25T05:24:42;101394.28;;;6.57;82.81
38630;BME280;24384;51.988;4.644;2023-04-25T05:27:07;101395.16;;;6.55;82.90
38630;BME280;24384;51.988;4.644;2023-04-25T05:29:32;101416.97;;;6.58;82.97
38630;BME280;24384;51.988;4.644;2023-04-25T05:31:57;101414.34;;;6.60;82.41
38630;BME280;24384;51.988;4.644;2023-04-25T05:34:23;101426.63;;;6.49;83.23
38630;BME280;24384;51.988;4.644;2023-04-25T05:36:48;101428.34;;;6.54;83.68
38630;BME280;24384;51.988;4.644;2023-04-25T05:39:14;101427.50;;;6.52;84.69
38630;BME280;24384;51.988;4.644;2023-04-25T05:41:40;101426.47;;;6.72;83.62
38630;BME280;24384;51.988;4.644;2023-04-25T05:44:05;101430.81;;;6.77;83.01
38630;BME280;24384;51.988;4.644;2023-04-25T05:46:30;101434.38;;;6.66;82.54
38630;BME280;24384;51.988;4.644;2023-04-25T05:48:55;101441.34;;;6.71;81.65
38630;BME280;24384;51.988;4.644;2023-04-25T05:51:20;101447.44;;;6.73;81.21
38630;BME280;24384;51.988;4.644;2023-04-25T05:53:46;101450.03;;;6.76;81.56
38630;BME280;24384;51.988;4.644;2023-04-25T05:56:11;101456.91;;;6.91;81.10
38630;BME280;24384;51.988;4.644;2023-04-25T05:58:36;101457.78;;;6.92;80.35
38630;BME280;24384;51.988;4.644;2023-04-25T06:01:01;101453.47;;;6.88;78.57
38630;BME280;24384;51.988;4.644;2023-04-25T06:03:27;101457.75;;;6.95;78.06
38630;BME280;24384;51.988;4.644;2023-04-25T06:05:52;101459.59;;;6.84;79.41
38630;BME280;24384;51.988;4.644;2023-04-25T06:08:17;101462.22;;;6.84;79.13
38630;BME280;24384;51.988;4.644;2023-04-25T06:10:43;101462.06;;;7.02;79.32
38630;BME280;24384;51.988;4.644;2023-04-25T06:13:09;101477.72;;;7.13;77.31
38630;BME280;24384;51.988;4.644;2023-04-25T06:15:34;101474.34;;;6.98;76.12
38630;BME280;24384;51.988;4.644;2023-04-25T06:17:59;101484.22;;;6.58;76.89
38630;BME280;24384;51.988;4.644;2023-04-25T06:20:25;101486.91;;;6.50;77.66
38630;BME280;24384;51.988;4.644;2023-04-25T06:22:50;101493.16;;;6.29;78.21
38630;BME280;24384;51.988;4.644;2023-04-25T06:25:16;101494.94;;;6.18;80.36
38630;BME280;24384;51.988;4.644;2023-04-25T06:27:41;101501.13;;;6.01;80.76
38630;BME280;24384;51.988;4.644;2023-04-25T06:30:07;101489.69;;;6.15;80.52
38630;BME280;24384;51.988;4.644;2023-04-25T06:32:32;101494.03;;;6.26;79.17
38630;BME280;24384;51.988;4.644;2023-04-25T06:35:00;101488.78;;;6.26;81.33
38630;BME280;24384;51.988;4.644;2023-04-25T06:37:25;101487.88;;;6.35;82.36
38630;BME280;24384;51.988;4.644;2023-04-25T06:39:51;101493.91;;;6.47;83.78
38630;BME280;24384;51.988;4.644;2023-04-25T06:42:16;101487.72;;;6.63;83.06
38630;BME280;24384;51.988;4.644;2023-04-25T06:44:41;101500.78;;;6.72;82.36
38630;BME280;24384;51.988;4.644;2023-04-25T06:47:06;101497.19;;;6.79;82.06
38630;BME280;24384;51.988;4.644;2023-04-25T06:49:31;101487.56;;;6.88;82.18
38630;BME280;24384;51.988;4.644;2023-04-25T06:51:57;101498.88;;;6.91;82.01
38630;BME280;24384;51.988;4.644;2023-04-25T06:54:22;101505.78;;;7.03;80.84
38630;BME280;24384;51.988;4.644;2023-04-25T06:56:47;101506.47;;;7.27;80.18
38630;BME280;24384;51.988;4.644;2023-04-25T06:59:12;101513.34;;;7.40;79.88
38630;BME280;24384;51.988;4.644;2023-04-25T07:01:38;101512.31;;;7.57;78.60
38630;BME280;24384;51.988;4.644;2023-04-25T07:04:05;101506.19;;;7.56;76.29
38630;BME280;24384;51.988;4.644;2023-04-25T07:06:31;101503.31;;;7.81;76.73
38630;BME280;24384;51.988;4.644;2023-04-25T07:08:56;101500.44;;;8.02;75.57
38630;BME280;24384;51.988;4.644;2023-04-25T07:11:21;101498.72;;;7.98;75.46
38630;BME280;24384;51.988;4.644;2023-04-25T07:13:46;101492.28;;;8.25;74.03
38630;BME280;24384;51.988;4.644;2023-04-25T07:16:11;101507.47;;;8.02;74.09
38630;BME280;24384;51.988;4.644;2023-04-25T07:18:36;101503.81;;;8.14;73.70
38630;BME280;24384;51.988;4.644;2023-04-25T07:21:02;101513.44;;;8.15;75.87
38630;BME280;24384;51.988;4.644;2023-04-25T07:23:27;101506.06;;;8.41;75.33
38630;BME280;24384;51.988;4.644;2023-04-25T07:25:52;101510.47;;;8.41;73.42
38630;BME280;24384;51.988;4.644;2023-04-25T07:28:17;101517.75;;;8.20;73.27
38630;BME280;24384;51.988;4.644;2023-04-25T07:30:43;101509.59;;;8.44;73.22
38630;BME280;24384;51.988;4.644;2023-04-25T07:33:08;101514.88;;;8.39;72.95
38630;BME280;24384;51.988;4.644;2023-04-25T07:35:33;101526.66;;;8.77;73.68
38630;BME280;24384;51.988;4.644;2023-04-25T07:37:59;101524.44;;;9.08;72.72
38630;BME280;24384;51.988;4.644;2023-04-25T07:40:24;101526.28;;;9.02;71.82
38630;BME280;24384;51.988;4.644;2023-04-25T07:42:49;101529.59;;;9.16;70.63
38630;BME280;24384;51.988;4.644;2023-04-25T07:45:14;101527.47;;;8.82;69.85
38630;BME280;24384;51.988;4.644;2023-04-25T07:47:40;101529.75;;;9.05;67.52
38630;BME280;24384;51.988;4.644;2023-04-25T07:50:05;101523.69;;;8.99;68.67
38630;BME280;24384;51.988;4.644;2023-04-25T07:52:31;101527.16;;;9.55;68.30
38630;BME280;24384;51.988;4.644;2023-04-25T07:54:56;101523.44;;;10.12;70.22
38630;BME280;24384;51.988;4.644;2023-04-25T07:57:23;101533.53;;;10.76;66.11
38630;BME280;24384;51.988;4.644;2023-04-25T07:59:49;101533.44;;;11.17;63.14
38630;BME280;24384;51.988;4.644;2023-04-25T08:02:14;101531.50;;;11.25;60.76
38630;BME280;24384;51.988;4.644;2023-04-25T08:04:39;101540.09;;;11.33;59.39
38630;BME280;24384;51.988;4.644;2023-04-25T08:07:05;101539.44;;;10.86;58.89
38630;BME280;24384;51.988;4.644;2023-04-25T08:09:30;101538.34;;;10.57;58.59
38630;BME280;24384;51.988;4.644;2023-04-25T08:11:59;101554.84;;;10.23;59.30
38630;BME280;24384;51.988;4.644;2023-04-25T08:14:25;101562.31;;;10.01;60.10
38630;BME280;24384;51.988;4.644;2023-04-25T08:16:51;101565.25;;;9.85;60.24
38630;BME280;24384;51.988;4.644;2023-04-25T08:19:16;101562.38;;;10.43;58.81
38630;BME280;24384;51.988;4.644;2023-04-25T08:21:41;101557.59;;;11.00;59.98
38630;BME280;24384;51.988;4.644;2023-04-25T08:24:06;101572.63;;;11.34;56.36
38630;BME280;24384;51.988;4.644;2023-04-25T08:26:31;101561.38;;;11.61;54.30
38630;BME280;24384;51.988;4.644;2023-04-25T08:28:57;101574.34;;;11.36;57.74
38630;BME280;24384;51.988;4.644;2023-04-25T08:31:22;101579.88;;;11.25;55.14
38630;BME280;24384;51.988;4.644;2023-04-25T08:33:48;101581.22;;;10.67;54.21
38630;BME280;24384;51.988;4.644;2023-04-25T08:36:14;101583.63;;;10.35;54.85
38630;BME280;24384;51.988;4.644;2023-04-25T08:38:40;101595.03;;;9.89;56.42
38630;BME280;24384;51.988;4.644;2023-04-25T08:41:05;101600.72;;;9.66;57.48
38630;BME280;24384;51.988;4.644;2023-04-25T08:43:31;101603.88;;;9.34;59.60
38630;BME280;24384;51.988;4.644;2023-04-25T08:45:58;101607.28;;;9.39;59.72
38630;BME280;24384;51.988;4.644;2023-04-25T08:48:24;101609.25;;;9.26;61.81
38630;BME280;24384;51.988;4.644;2023-04-25T08:50:52;101605.03;;;9.14;63.66
38630;BME280;24384;51.988;4.644;2023-04-25T08:53:28;101612.25;;;9.57;62.46
38630;BME280;24384;51.988;4.644;2023-04-25T08:55:54;101611.06;;;9.77;61.98
38630;BME280;24384;51.988;4.644;2023-04-25T08:58:19;101621.19;;;10.00;62.66
38630;BME280;24384;51.988;4.644;2023-04-25T09:00:48;101627.44;;;9.94;61.96
38630;BME280;24384;51.988;4.644;2023-04-25T09:03:14;101631.81;;;9.95;60.82
38630;BME280;24384;51.988;4.644;2023-04-25T09:05:40;101637.31;;;9.81;60.09
38630;BME280;24384;51.988;4.644;2023-04-25T09:08:06;101644.50;;;10.23;60.16
38630;BME280;24384;51.988;4.644;2023-04-25T09:10:31;101644.41;;;10.73;58.66
38630;BME280;24384;51.988;4.644;2023-04-25T09:15:31;101648.28;;;11.36;54.43
38630;BME280;24384;51.988;4.644;2023-04-25T09:17:57;101650.78;;;11.42;53.47
38630;BME280;24384;51.988;4.644;2023-04-25T09:20:23;101651.41;;;11.54;52.27
38630;BME280;24384;51.988;4.644;2023-04-25T09:22:49;101643.59;;;11.85;51.82
38630;BME280;24384;51.988;4.644;2023-04-25T09:25:15;101660.63;;;12.42;51.26
38630;BME280;24384;51.988;4.644;2023-04-25T09:27:50;101650.97;;;12.71;49.72
38630;BME280;24384;51.988;4.644;2023-04-25T09:30:18;101660.47;;;12.78;54.95
38630;BME280;24384;51.988;4.644;2023-04-25T09:32:43;101660.59;;;13.03;57.16
38630;BME280;24384;51.988;4.644;2023-04-25T09:35:09;101669.13;;;12.53;57.05
38630;BME280;24384;51.988;4.644;2023-04-25T09:37:36;101678.75;;;11.53;57.25
38630;BME280;24384;51.988;4.644;2023-04-25T09:40:04;101688.63;;;11.43;58.92
38630;BME280;24384;51.988;4.644;2023-04-25T09:42:30;101681.19;;;11.60;59.06
38630;BME280;24384;51.988;4.644;2023-04-25T09:44:58;101687.25;;;12.36;58.87
38630;BME280;24384;51.988;4.644;2023-04-25T09:47:24;101689.56;;;12.80;56.45
38630;BME280;24384;51.988;4.644;2023-04-25T09:49:50;101690.66;;;13.02;54.14
38630;BME280;24384;51.988;4.644;2023-04-25T09:52:17;101693.06;;;12.80;56.65
38630;BME280;24384;51.988;4.644;2023-04-25T09:54:45;101690.63;;;13.04;55.45
38630;BME280;24384;51.988;4.644;2023-04-25T09:59:36;101697.19;;;13.50;54.79
38630;BME280;24384;51.988;4.644;2023-04-25T10:02:03;101696.16;;;13.54;52.21
38630;BME280;24384;51.988;4.644;2023-04-25T10:04:28;101699.34;;;13.66;52.10
38630;BME280;24384;51.988;4.644;2023-04-25T10:06:57;101696.19;;;14.08;52.28
38630;BME280;24384;51.988;4.644;2023-04-25T10:09:24;101701.22;;;14.15;50.33
38630;BME280;24384;51.988;4.644;2023-04-25T10:11:50;101702.47;;;14.56;49.78
38630;BME280;24384;51.988;4.644;2023-04-25T10:14:16;101706.97;;;14.28;49.83
38630;BME280;24384;51.988;4.644;2023-04-25T10:16:41;101708.22;;;13.36;50.17
38630;BME280;24384;51.988;4.644;2023-04-25T10:19:06;101716.97;;;12.77;53.70
38630;BME280;24384;51.988;4.644;2023-04-25T10:21:32;101729.59;;;12.00;53.93
38630;BME280;24384;51.988;4.644;2023-04-25T10:23:58;101714.81;;;11.52;55.62
38630;BME280;24384;51.988;4.644;2023-04-25T10:26:24;101716.97;;;11.36;54.78
38630;BME280;24384;51.988;4.644;2023-04-25T10:29:00;101713.69;;;11.25;56.40
38630;BME280;24384;51.988;4.644;2023-04-25T10:31:31;101711.53;;;11.42;55.11
38630;BME280;24384;51.988;4.644;2023-04-25T10:33:57;101714.09;;;11.83;54.98
38630;BME280;24384;51.988;4.644;2023-04-25T10:36:23;101715.41;;;12.37;56.80
38630;BME280;24384;51.988;4.644;2023-04-25T10:38:49;101720.66;;;12.39;52.27
38630;BME280;24384;51.988;4.644;2023-04-25T10:41:19;101722.97;;;11.82;54.82
38630;BME280;24384;51.988;4.644;2023-04-25T10:43:45;101724.44;;;11.56;56.12
38630;BME280;24384;51.988;4.644;2023-04-25T10:46:27;101722.47;;;10.85;56.80
38630;BME280;24384;51.988;4.644;2023-04-25T10:48:53;101711.06;;;11.62;58.04
38630;BME280;24384;51.988;4.644;2023-04-25T10:51:39;101714.69;;;12.32;56.25
38630;BME280;24384;51.988;4.644;2023-04-25T10:54:07;101713.63;;;13.02;49.99
38630;BME280;24384;51.988;4.644;2023-04-25T10:56:33;101702.25;;;13.58;50.00
38630;BME280;24384;51.988;4.644;2023-04-25T10:59:06;101701.72;;;14.27;47.80
38630;BME280;24384;51.988;4.644;2023-04-25T11:04:05;101716.97;;;13.95;46.64
38630;BME280;24384;51.988;4.644;2023-04-25T11:06:42;101709.16;;;13.90;44.80
38630;BME280;24384;51.988;4.644;2023-04-25T11:09:11;101710.44;;;14.04;46.36
38630;BME280;24384;51.988;4.644;2023-04-25T11:11:40;101712.97;;;14.60;45.76
38630;BME280;24384;51.988;4.644;2023-04-25T11:14:05;101713.91;;;14.32;42.80
38630;BME280;24384;51.988;4.644;2023-04-25T11:16:30;101710.56;;;14.01;46.59
38630;BME280;24384;51.988;4.644;2023-04-25T11:18:57;101717.47;;;13.79;46.52
38630;BME280;24384;51.988;4.644;2023-04-25T11:21:22;101721.94;;;13.49;44.80
38630;BME280;24384;51.988;4.644;2023-04-25T11:23:47;101722.75;;;13.51;46.26
38630;BME280;24384;51.988;4.644;2023-04-25T11:26:13;101715.31;;;13.91;46.06
38630;BME280;24384;51.988;4.644;2023-04-25T11:28:38;101720.47;;;13.69;43.23
38630;BME280;24384;51.988;4.644;2023-04-25T11:31:04;101726.00;;;14.14;45.90
38630;BME280;24384;51.988;4.644;2023-04-25T11:33:29;101724.47;;;14.59;42.66
38630;BME280;24384;51.988;4.644;2023-04-25T11:35:55;101723.34;;;15.37;43.52
38630;BME280;24384;51.988;4.644;2023-04-25T11:38:21;101721.09;;;15.72;39.43
38630;BME280;24384;51.988;4.644;2023-04-25T11:40:53;101725.34;;;15.99;40.71
38630;BME280;24384;51.988;4.644;2023-04-25T11:43:21;101728.94;;;15.75;41.21
38630;BME280;24384;51.988;4.644;2023-04-25T11:45:47;101730.66;;;15.76;39.78
38630;BME280;24384;51.988;4.644;2023-04-25T11:48:13;101729.03;;;16.17;40.55
38630;BME280;24384;51.988;4.644;2023-04-25T11:50:41;101737.44;;;15.63;38.41
38630;BME280;24384;51.988;4.644;2023-04-25T11:53:06;101737.53;;;15.60;40.14
38630;BME280;24384;51.988;4.644;2023-04-25T11:55:33;101742.88;;;15.60;43.14
38630;BME280;24384;51.988;4.644;2023-04-25T11:57:59;101747.69;;;14.27;41.47
38630;BME280;24384;51.988;4.644;2023-04-25T12:00:25;101746.88;;;13.42;44.43
38630;BME280;24384;51.988;4.644;2023-04-25T12:02:51;101751.84;;;13.83;46.38
38630;BME280;24384;51.988;4.644;2023-04-25T12:05:17;101749.41;;;14.28;41.87
38630;BME280;24384;51.988;4.644;2023-04-25T12:07:43;101751.38;;;14.99;44.04
38630;BME280;24384;51.988;4.644;2023-04-25T12:10:09;101748.38;;;14.84;42.37
38630;BME280;24384;51.988;4.644;2023-04-25T12:12:35;101754.31;;;14.41;43.95
38630;BME280;24384;51.988;4.644;2023-04-25T12:17:44;101751.09;;;14.83;41.28
38630;BME280;24384;51.988;4.644;2023-04-25T12:20:10;101750.69;;;15.17;40.70
38630;BME280;24384;51.988;4.644;2023-04-25T12:22:37;101749.09;;;15.37;41.04
38630;BME280;24384;51.988;4.644;2023-04-25T12:25:02;101757.75;;;15.64;40.86
38630;BME280;24384;51.988;4.644;2023-04-25T12:27:30;101760.38;;;16.31;42.13
38630;BME280;24384;51.988;4.644;2023-04-25T12:29:55;101765.25;;;17.03;40.49
38630;BME280;24384;51.988;4.644;2023-04-25T12:32:21;101770.38;;;17.27;39.05
38630;BME280;24384;51.988;4.644;2023-04-25T12:34:46;101765.75;;;17.11;35.86
38630;BME280;24384;51.988;4.644;2023-04-25T12:37:12;101762.72;;;17.00;36.02
38630;BME280;24384;51.988;4.644;2023-04-25T12:39:37;101774.69;;;17.10;36.60
38630;BME280;24384;51.988;4.644;2023-04-25T12:42:03;101764.91;;;17.49;34.02
38630;BME280;24384;51.988;4.644;2023-04-25T12:44:28;101764.09;;;17.66;33.34
38630;BME280;24384;51.988;4.644;2023-04-25T12:46:53;101771.13;;;17.86;34.21
38630;BME280;24384;51.988;4.644;2023-04-25T12:49:19;101766.47;;;18.08;35.99
38630;BME280;24384;51.988;4.644;2023-04-25T12:51:44;101762.03;;;18.27;34.48
38630;BME280;24384;51.988;4.644;2023-04-25T12:54:10;101766.09;;;17.99;34.44
38630;BME280;24384;51.988;4.644;2023-04-25T12:56:35;101770.97;;;18.25;35.43
38630;BME280;24384;51.988;4.644;2023-04-25T12:59:01;101769.13;;;17.72;35.84
38630;BME280;24384;51.988;4.644;2023-04-25T13:01:28;101767.69;;;18.20;36.50